Time;durP1;ratioP1;P1;durP2;ratioP2;P2;SDS_P1;SDS_P2;PMS_P1;PMS_P2;Temp;Humidity;BMP_temperature;BMP_pressure;BME280_temperature;BME280_humidity;BME280_pressure;Samples;Min_cycle;Max_cycle;Signal;HPM_P1;HPM_P2
2022/04/14 00:01:24;;;;;;;0.20;0.20;;;;;;;19.27;39.46;101625.69;5100970;28;20054;-30
2022/04/14 00:03:50;;;;;;;0.20;0.20;;;;;;;19.27;39.23;101630.38;5098131;28;20129;-30
2022/04/14 00:06:16;;;;;;;0.20;0.20;;;;;;;19.27;39.46;101628.44;5103039;28;20147;-31
2022/04/14 00:08:42;;;;;;;0.20;0.20;;;;;;;19.28;39.26;101621.00;5099676;28;20059;-29
2022/04/14 00:11:07;;;;;;;0.20;0.20;;;;;;;19.29;39.37;101625.41;5097828;28;20448;-30
2022/04/14 00:13:33;;;;;;;0.20;0.20;;;;;;;19.28;39.22;101619.06;5103288;28;20043;-30
2022/04/14 00:15:59;;;;;;;0.20;0.20;;;;;;;19.28;39.40;101612.72;5086199;28;20055;-30
2022/04/14 00:18:24;;;;;;;0.20;0.20;;;;;;;19.28;39.28;101612.72;5100095;28;20040;-30
2022/04/14 00:20:50;;;;;;;0.20;0.20;;;;;;;19.29;39.54;101615.19;5098038;28;20047;-29
2022/04/14 00:23:16;;;;;;;0.20;0.20;;;;;;;19.28;39.38;101604.44;5108390;28;20073;-29
2022/04/14 00:25:42;;;;;;;0.20;0.20;;;;;;;19.28;39.31;101599.72;5102482;28;20036;-30
2022/04/14 00:28:07;;;;;;;0.20;0.20;;;;;;;19.28;39.35;101605.25;5096624;28;20128;-30
2022/04/14 00:30:33;;;;;;;0.20;0.20;;;;;;;19.29;39.55;101604.16;5105246;28;20052;-31
2022/04/14 00:32:59;;;;;;;0.20;0.20;;;;;;;19.28;39.42;101604.44;5101871;28;20048;-30
2022/04/14 00:35:25;;;;;;;0.20;0.20;;;;;;;19.29;39.19;101614.38;5103378;28;20483;-31
2022/04/14 00:37:51;;;;;;;0.20;0.20;;;;;;;19.29;39.37;101614.38;5100459;28;20048;-30
2022/04/14 00:40:16;;;;;;;0.20;0.20;;;;;;;19.29;39.46;101614.38;5105897;28;20140;-29
2022/04/14 00:42:42;;;;;;;0.20;0.20;;;;;;;19.29;39.45;101620.72;5097104;28;20056;-30
2022/04/14 00:45:09;;;;;;;0.20;0.20;;;;;;;19.29;39.46;101611.59;5102394;28;20040;-30
2022/04/14 00:47:35;;;;;;;0.20;0.20;;;;;;;19.27;39.27;101611.88;5100488;28;20490;-30
2022/04/14 00:50:02;;;;;;;0.20;0.20;;;;;;;19.28;39.52;101608.03;5096954;28;20126;-31
2022/04/14 00:52:28;;;;;;;0.20;0.20;;;;;;;19.30;39.45;101605.00;5101326;28;20076;-34
2022/04/14 00:54:54;;;;;;;0.20;0.20;;;;;;;19.29;39.51;101597.81;5103736;28;20055;-30
2022/04/14 00:57:19;;;;;;;0.20;0.20;;;;;;;19.29;39.50;101587.59;5100460;28;20460;-29
2022/04/14 00:59:45;;;;;;;0.20;0.20;;;;;;;19.29;39.38;101601.38;5098805;28;20120;-31
2022/04/14 01:02:11;;;;;;;0.30;0.30;;;;;;;19.28;39.16;101588.69;5082491;28;20072;-30
2022/04/14 01:04:37;;;;;;;0.20;0.20;;;;;;;19.28;39.40;101585.94;5079636;28;20040;-30
2022/04/14 01:07:06;;;;;;;0.20;0.20;;;;;;;19.29;39.43;101589.53;5101403;28;20083;-30
2022/04/14 01:09:33;;;;;;;0.20;0.20;;;;;;;19.29;39.54;101595.03;5084159;28;20063;-29
2022/04/14 01:11:59;;;;;;;0.20;0.20;;;;;;;19.29;39.36;101595.88;5096991;28;20487;-29
2022/04/14 01:14:28;;;;;;;0.20;0.20;;;;;;;19.30;39.51;101602.25;5068088;28;20058;-30
2022/04/14 01:16:54;;;;;;;0.20;0.20;;;;;;;19.29;39.22;101600.56;5082204;28;20079;-29
2022/04/14 01:19:20;;;;;;;0.20;0.20;;;;;;;19.28;39.25;101594.22;5097479;28;20036;-29
2022/04/14 01:22:01;;;;;;;0.20;0.20;;;;;;;19.30;39.22;101602.25;5102237;28;20065;-30
2022/04/14 01:24:27;;;;;;;0.20;0.20;;;;;;;19.29;39.42;101601.38;5098210;28;20052;-31
2022/04/14 01:26:53;;;;;;;0.20;0.20;;;;;;;19.29;39.30;101604.16;5106005;28;20046;-31
2022/04/14 01:29:21;;;;;;;0.20;0.20;;;;;;;19.29;39.25;101595.03;5103283;28;20143;-30
2022/04/14 01:31:47;;;;;;;0.20;0.20;;;;;;;19.30;39.36;101605.00;5083713;28;20483;-29
2022/04/14 01:34:13;;;;;;;0.20;0.20;;;;;;;19.30;39.47;101605.00;5076794;28;20040;-29
2022/04/14 01:36:39;;;;;;;0.20;0.20;;;;;;;19.29;39.27;101612.44;5097556;28;20048;-29
2022/04/14 01:39:04;;;;;;;0.20;0.20;;;;;;;19.30;39.29;101616.06;5101669;28;20092;-30
2022/04/14 01:41:30;;;;;;;0.20;0.20;;;;;;;19.29;39.53;101606.91;5099670;28;20043;-30
2022/04/14 01:43:55;;;;;;;0.20;0.20;;;;;;;19.30;39.46;101613.31;5098947;28;20397;-29
2022/04/14 01:46:21;;;;;;;0.20;0.20;;;;;;;19.29;39.36;101606.91;5104877;28;20073;-30
2022/04/14 01:48:47;;;;;;;0.20;0.20;;;;;;;19.30;39.63;101607.78;5094769;28;20048;-30
2022/04/14 01:51:13;;;;;;;0.20;0.20;;;;;;;19.29;39.49;101608.84;5100729;28;20044;-31
2022/04/14 01:53:38;;;;;;;0.20;0.20;;;;;;;19.30;38.93;101607.78;5098359;28;20044;-30
2022/04/14 01:56:04;;;;;;;0.20;0.20;;;;;;;19.30;39.39;101607.78;5098993;28;20052;-30
2022/04/14 01:58:30;;;;;;;0.20;0.20;;;;;;;19.29;39.47;101606.91;5101366;28;20160;-30
2022/04/14 02:00:55;;;;;;;0.20;0.20;;;;;;;19.29;39.36;101608.84;5099777;28;20101;-30
2022/04/14 02:03:21;;;;;;;0.20;0.20;;;;;;;19.30;39.35;101599.50;5097377;28;20561;-29
2022/04/14 02:05:47;;;;;;;0.20;0.20;;;;;;;19.30;39.32;101589.28;5100155;28;20046;-32
2022/04/14 02:08:12;;;;;;;0.20;0.20;;;;;;;19.30;39.27;101596.72;5100177;28;20487;-30
2022/04/14 02:10:38;;;;;;;0.20;0.20;;;;;;;19.30;39.29;101593.97;5100301;28;20446;-30
2022/04/14 02:13:04;;;;;;;0.20;0.20;;;;;;;19.30;39.27;101597.56;5103155;28;20040;-30
2022/04/14 02:15:30;;;;;;;0.20;0.20;;;;;;;19.29;39.51;101603.31;5099532;28;20524;-30
2022/04/14 02:17:57;;;;;;;0.20;0.20;;;;;;;19.29;39.36;101597.81;5095668;28;20052;-29
2022/04/14 02:20:23;;;;;;;0.20;0.20;;;;;;;19.29;39.34;101595.03;5098520;28;20126;-30
2022/04/14 02:22:49;;;;;;;0.20;0.20;;;;;;;19.29;39.53;101597.81;5098755;28;20131;-30
2022/04/14 02:25:15;;;;;;;0.20;0.20;;;;;;;19.29;39.44;101598.63;5099836;28;20043;-30
2022/04/14 02:27:40;;;;;;;0.20;0.20;;;;;;;19.30;39.33;101596.72;5098815;28;20047;-30
2022/04/14 02:30:06;;;;;;;0.20;0.20;;;;;;;19.29;39.25;101603.31;5096526;28;20089;-33
2022/04/14 02:32:32;;;;;;;0.20;0.20;;;;;;;19.29;39.51;101606.91;5100094;28;20457;-29
2022/04/14 02:34:58;;;;;;;0.20;0.20;;;;;;;19.29;39.54;101606.09;5101507;28;20044;-30
2022/04/14 02:37:24;;;;;;;0.20;0.20;;;;;;;19.30;39.51;101602.25;5097093;28;20047;-30
2022/04/14 02:39:49;;;;;;;0.20;0.20;;;;;;;19.29;39.26;101597.81;5097006;28;20126;-30
2022/04/14 02:42:15;;;;;;;0.20;0.20;;;;;;;19.29;39.46;101604.16;5096170;28;20070;-29
2022/04/14 02:44:40;;;;;;;0.20;0.20;;;;;;;19.30;39.16;101602.25;5102798;28;20048;-30
2022/04/14 02:47:06;;;;;;;0.20;0.20;;;;;;;19.29;39.21;101604.16;5097480;28;20062;-30
2022/04/14 02:49:32;;;;;;;0.20;0.20;;;;;;;19.31;39.26;101606.66;5094213;28;20051;-30
2022/04/14 02:51:57;;;;;;;0.20;0.20;;;;;;;19.29;39.59;101604.16;5102896;28;20051;-31
2022/04/14 02:54:23;;;;;;;0.20;0.20;;;;;;;19.30;39.32;101607.78;5104901;28;20044;-31
2022/04/14 02:56:49;;;;;;;0.20;0.20;;;;;;;19.29;39.53;101601.38;5100801;28;20039;-28
2022/04/14 02:59:14;;;;;;;0.20;0.20;;;;;;;19.29;39.29;101612.44;5096043;28;20044;-30
2022/04/14 03:01:40;;;;;;;0.20;0.20;;;;;;;19.29;39.33;101608.84;5098703;28;20134;-30
2022/04/14 03:04:06;;;;;;;0.20;0.20;;;;;;;19.29;39.42;101600.56;5099334;28;20048;-29
2022/04/14 03:06:31;;;;;;;0.20;0.20;;;;;;;19.29;39.41;101581.22;5096691;28;20051;-30
2022/04/14 03:08:57;;;;;;;0.20;0.20;;;;;;;19.29;39.31;101575.72;5094045;28;20043;-31
2022/04/14 03:11:22;;;;;;;0.20;0.20;;;;;;;19.30;39.25;101582.91;5100256;28;20307;-30
2022/04/14 03:13:48;;;;;;;0.30;0.30;;;;;;;19.29;39.39;101573.78;5101432;28;20053;-29
2022/04/14 03:16:14;;;;;;;0.20;0.20;;;;;;;19.29;39.37;101572.94;5096254;28;20497;-29
2022/04/14 03:18:40;;;;;;;0.20;0.20;;;;;;;19.28;39.25;101569.34;5101565;28;20535;-30
2022/04/14 03:21:05;;;;;;;0.20;0.20;;;;;;;19.29;39.28;101573.78;5095512;28;20482;-29
2022/04/14 03:23:31;;;;;;;0.20;0.20;;;;;;;19.29;39.44;101567.41;5093936;28;20176;-33
2022/04/14 03:25:57;;;;;;;0.20;0.20;;;;;;;19.28;39.28;101577.63;5100391;28;20036;-29
2022/04/14 03:28:22;;;;;;;0.20;0.20;;;;;;;19.30;39.50;101580.16;5095300;28;20477;-31
2022/04/14 03:30:48;;;;;;;0.20;0.20;;;;;;;19.29;39.26;101576.53;5095778;28;20429;-31
2022/04/14 03:33:14;;;;;;;0.20;0.20;;;;;;;19.28;39.55;101579.56;5100889;28;20051;-29
2022/04/14 03:35:39;;;;;;;0.20;0.20;;;;;;;19.28;39.27;101577.63;5094624;28;20089;-30
2022/04/14 03:38:05;;;;;;;0.20;0.20;;;;;;;19.28;39.28;101585.94;5097472;28;20408;-30
2022/04/14 03:40:51;;;;;;;0.20;0.20;;;;;;;19.27;39.36;101589.78;5093363;28;20156;-30
2022/04/14 03:43:16;;;;;;;0.20;0.20;;;;;;;19.29;39.59;101584.81;5101588;28;20048;-30
2022/04/14 03:45:42;;;;;;;0.20;0.20;;;;;;;19.29;39.43;101586.75;5099749;28;20414;-30
2022/04/14 03:48:08;;;;;;;0.22;0.22;;;;;;;19.29;39.37;101581.22;5096934;28;20112;-30
2022/04/14 03:50:33;;;;;;;0.20;0.20;;;;;;;19.28;39.30;101588.69;5104642;28;20042;-30
2022/04/14 03:52:59;;;;;;;0.20;0.20;;;;;;;19.29;39.33;101597.81;5104536;28;20048;-30
2022/04/14 03:55:25;;;;;;;0.20;0.20;;;;;;;19.28;39.62;101596.97;5106080;28;20075;-30
2022/04/14 03:57:51;;;;;;;0.20;0.20;;;;;;;19.29;39.35;101603.31;5104353;28;20143;-30
2022/04/14 04:00:17;;;;;;;0.20;0.20;;;;;;;19.29;39.44;101603.31;5100745;28;20047;-29
2022/04/14 04:02:42;;;;;;;0.20;0.20;;;;;;;19.29;39.60;101603.31;5082605;28;20104;-30
2022/04/14 04:05:08;;;;;;;0.20;0.20;;;;;;;19.28;39.56;101609.94;5104413;28;20043;-31
2022/04/14 04:07:34;;;;;;;0.30;0.30;;;;;;;19.29;39.56;101608.84;5069974;28;20085;-31
2022/04/14 04:10:00;;;;;;;0.20;0.20;;;;;;;19.28;39.40;101610.78;5081816;28;20051;-29
2022/04/14 04:12:25;;;;;;;0.30;0.30;;;;;;;19.28;39.52;101610.78;5084200;28;20134;-30
2022/04/14 04:14:51;;;;;;;0.20;0.20;;;;;;;19.29;39.22;101619.91;5102649;28;20063;-31
2022/04/14 04:17:17;;;;;;;0.20;0.20;;;;;;;19.28;39.39;101621.81;5100477;28;20047;-32
2022/04/14 04:19:43;;;;;;;0.20;0.20;;;;;;;19.28;39.58;101626.53;5081719;28;20044;-31
2022/04/14 04:22:10;;;;;;;0.20;0.20;;;;;;;19.28;39.39;101629.28;5087567;28;20429;-31
2022/04/14 04:24:36;;;;;;;0.20;0.20;;;;;;;19.28;39.27;101629.28;5103599;28;20070;-32
2022/04/14 04:27:02;;;;;;;0.20;0.20;;;;;;;19.28;39.43;101623.75;5104122;28;20471;-30
2022/04/14 04:29:27;;;;;;;0.20;0.20;;;;;;;19.28;39.54;101632.88;5085749;28;20039;-29
2022/04/14 04:31:53;;;;;;;0.20;0.20;;;;;;;19.28;39.59;101638.41;5103433;28;20047;-29
2022/04/14 04:34:19;;;;;;;0.20;0.20;;;;;;;19.28;39.27;101641.16;5097148;28;20082;-30
2022/04/14 04:36:45;;;;;;;0.20;0.20;;;;;;;19.29;39.50;101648.34;5097950;28;20039;-30
2022/04/14 04:39:10;;;;;;;0.20;0.20;;;;;;;19.29;39.60;101648.34;5103191;28;20051;-29
2022/04/14 04:41:37;;;;;;;0.20;0.20;;;;;;;19.28;39.65;101646.69;5102349;28;20052;-30
2022/04/14 04:44:04;;;;;;;0.20;0.20;;;;;;;19.28;39.42;101648.63;5099484;28;20169;-31
2022/04/14 04:46:30;;;;;;;0.20;0.20;;;;;;;19.28;39.39;101648.63;5101817;28;20074;-30
2022/04/14 04:48:56;;;;;;;0.20;0.20;;;;;;;19.28;39.59;101640.34;5081610;28;20051;-29
2022/04/14 04:51:22;;;;;;;0.20;0.20;;;;;;;19.27;39.56;101642.25;5104111;28;20051;-30
2022/04/14 04:53:47;;;;;;;0.20;0.20;;;;;;;19.28;39.34;101646.69;5102613;28;20048;-30
2022/04/14 04:56:13;;;;;;;0.20;0.20;;;;;;;19.28;39.70;101643.09;5108779;28;20053;-29
2022/04/14 04:58:39;;;;;;;0.20;0.20;;;;;;;19.27;39.35;101639.50;5101405;28;20054;-30
2022/04/14 05:01:05;;;;;;;0.20;0.20;;;;;;;19.28;39.29;101646.69;5101876;28;20462;-29
2022/04/14 05:03:30;;;;;;;0.20;0.20;;;;;;;19.28;39.30;101649.44;5101519;28;20120;-30
2022/04/14 05:05:56;;;;;;;0.20;0.20;;;;;;;19.27;39.71;101653.31;5100301;28;20062;-30
2022/04/14 05:08:22;;;;;;;0.20;0.20;;;;;;;19.28;39.68;101660.50;5103257;28;20058;-30
2022/04/14 05:10:47;;;;;;;0.20;0.20;;;;;;;19.28;39.61;101663.25;5105191;28;20080;-31
2022/04/14 05:13:15;;;;;;;0.20;0.20;;;;;;;19.28;39.31;101657.72;5100128;28;20135;-30
2022/04/14 05:15:42;;;;;;;0.20;0.20;;;;;;;19.28;39.36;101662.41;5099139;28;20093;-30
2022/04/14 05:18:07;;;;;;;0.20;0.20;;;;;;;19.28;39.59;101660.50;5100114;28;20048;-31
2022/04/14 05:20:34;;;;;;;0.20;0.20;;;;;;;19.28;39.36;101659.66;5098186;28;20090;-30
2022/04/14 05:23:02;;;;;;;0.20;0.20;;;;;;;19.28;39.28;101656.91;5085184;28;20076;-31
2022/04/14 05:25:29;;;;;;;0.20;0.20;;;;;;;19.28;39.39;101667.94;5096679;28;20041;-29
2022/04/14 05:27:54;;;;;;;0.20;0.20;;;;;;;19.27;39.55;101664.34;5096318;28;20131;-31
2022/04/14 05:30:20;;;;;;;0.20;0.20;;;;;;;19.27;39.60;101658.84;5101115;28;20097;-32
2022/04/14 05:32:46;;;;;;;0.20;0.20;;;;;;;19.27;39.51;101661.59;5078882;28;20147;-29
2022/04/14 05:35:11;;;;;;;0.20;0.20;;;;;;;19.28;39.48;101667.94;5099524;28;20054;-30
2022/04/14 05:37:37;;;;;;;0.20;0.20;;;;;;;19.27;39.56;101667.13;5095643;28;20142;-30
2022/04/14 05:40:04;;;;;;;0.20;0.20;;;;;;;19.27;39.34;101667.13;5099997;28;20050;-30
2022/04/14 05:42:30;;;;;;;0.20;0.20;;;;;;;19.28;39.36;101679.81;5080108;28;20135;-31
2022/04/14 05:44:55;;;;;;;0.20;0.20;;;;;;;19.28;39.40;101684.50;5098707;28;20093;-29
2022/04/14 05:47:23;;;;;;;0.20;0.20;;;;;;;19.27;39.54;101689.22;5098936;28;20484;-31
2022/04/14 05:49:50;;;;;;;0.20;0.20;;;;;;;19.28;39.42;101682.59;5094703;28;20063;-30
2022/04/14 05:52:16;;;;;;;0.20;0.20;;;;;;;19.27;39.50;101686.44;5086026;28;20136;-30
2022/04/14 05:54:42;;;;;;;0.20;0.20;;;;;;;19.27;39.48;101675.41;5102879;28;20085;-30
2022/04/14 05:57:07;;;;;;;0.20;0.20;;;;;;;19.28;39.53;101684.50;5101067;28;20048;-30
2022/04/14 05:59:33;;;;;;;0.20;0.20;;;;;;;19.27;39.63;101683.69;5097406;28;20041;-30
2022/04/14 06:01:58;;;;;;;0.40;0.40;;;;;;;19.27;39.27;101682.84;5100845;28;20046;-30
2022/04/14 06:04:24;;;;;;;0.20;0.20;;;;;;;19.27;39.61;101688.38;5096485;28;20127;-30
2022/04/14 06:06:50;;;;;;;0.20;0.20;;;;;;;19.28;39.45;101692.81;5101053;28;20462;-31
2022/04/14 06:09:15;;;;;;;0.20;0.20;;;;;;;19.28;39.40;101690.88;5102268;28;20461;-29
2022/04/14 06:11:41;;;;;;;0.20;0.20;;;;;;;19.27;39.54;101689.22;5103631;28;20039;-29
2022/04/14 06:14:07;;;;;;;0.20;0.20;;;;;;;19.27;39.64;101686.44;5100990;28;20118;-30
2022/04/14 06:16:33;;;;;;;0.20;0.20;;;;;;;19.26;39.36;101684.78;5098136;28;20075;-32
2022/04/14 06:18:59;;;;;;;0.20;0.20;;;;;;;19.26;39.61;101676.50;5099399;28;20047;-30
2022/04/14 06:21:24;;;;;;;0.20;0.20;;;;;;;19.27;39.52;101689.22;5106919;28;20421;-30
2022/04/14 06:23:50;;;;;;;0.20;0.20;;;;;;;19.28;39.34;101693.63;5106255;28;20043;-30
2022/04/14 06:26:16;;;;;;;0.20;0.20;;;;;;;19.27;39.48;101696.66;5105679;28;20439;-30
2022/04/14 06:28:42;;;;;;;0.20;0.20;;;;;;;19.28;39.46;101690.03;5095394;28;20040;-29
2022/04/14 06:31:08;;;;;;;0.20;0.20;;;;;;;19.27;39.65;101689.22;5102314;28;20043;-30
2022/04/14 06:33:34;;;;;;;0.20;0.20;;;;;;;19.27;39.61;101697.50;5080116;28;20043;-30
2022/04/14 06:35:59;;;;;;;0.20;0.20;;;;;;;19.27;39.62;101700.25;5099069;28;20055;-29
2022/04/14 06:38:27;;;;;;;0.20;0.20;;;;;;;19.27;39.58;101702.19;5097422;28;20051;-29
2022/04/14 06:40:53;;;;;;;0.20;0.20;;;;;;;19.27;39.63;101700.25;5081007;28;20498;-29
2022/04/14 06:43:19;;;;;;;0.20;0.20;;;;;;;19.27;39.65;101704.94;5102788;28;20758;-29
2022/04/14 06:45:44;;;;;;;0.20;0.20;;;;;;;19.27;39.19;101705.78;5082454;28;20042;-29
2022/04/14 06:48:10;;;;;;;0.20;0.20;;;;;;;19.27;39.65;101699.44;5098304;28;20036;-30
2022/04/14 06:50:36;;;;;;;0.20;0.20;;;;;;;19.27;39.55;101707.72;5099092;28;20047;-31
2022/04/14 06:53:02;;;;;;;0.20;0.20;;;;;;;19.27;39.30;101711.31;5094681;28;20050;-30
2022/04/14 06:55:29;;;;;;;0.20;0.20;;;;;;;19.26;39.38;101704.13;5101841;28;20452;-30
2022/04/14 06:57:56;;;;;;;0.20;0.20;;;;;;;19.27;39.44;101707.72;5097303;28;20079;-30
2022/04/14 07:00:22;;;;;;;0.20;0.20;;;;;;;19.27;39.34;101708.53;5098223;28;20083;-30
2022/04/14 07:02:49;;;;;;;0.20;0.20;;;;;;;19.27;39.27;101710.47;5101360;28;20291;-29
2022/04/14 07:05:15;;;;;;;0.20;0.20;;;;;;;19.27;39.39;101714.06;5103840;28;20040;-29
2022/04/14 07:07:41;;;;;;;0.20;0.20;;;;;;;19.26;39.32;101726.22;5094766;28;20404;-30
2022/04/14 07:10:07;;;;;;;0.20;0.20;;;;;;;19.26;39.45;101722.63;5099521;28;20503;-29
2022/04/14 07:12:33;;;;;;;0.20;0.20;;;;;;;19.27;39.71;101727.03;5099264;28;20078;-31
2022/04/14 07:15:00;;;;;;;0.20;0.20;;;;;;;19.27;39.34;101729.81;5097220;28;20044;-29
2022/04/14 07:17:26;;;;;;;0.20;0.20;;;;;;;19.26;39.71;101731.75;5096760;28;20087;-29
2022/04/14 07:19:52;;;;;;;0.20;0.20;;;;;;;19.27;39.45;101736.16;5095870;28;20062;-30
2022/04/14 07:22:18;;;;;;;0.20;0.20;;;;;;;19.27;39.56;101729.81;5099778;28;20390;-29
2022/04/14 07:24:48;;;;;;;0.20;0.20;;;;;;;19.26;39.54;101737.25;5084507;28;20097;-29
2022/04/14 07:27:15;;;;;;;0.20;0.20;;;;;;;19.27;39.51;101735.31;5098719;28;20043;-27
2022/04/14 07:29:41;;;;;;;0.20;0.20;;;;;;;19.26;39.61;101728.16;5083148;28;20048;-28
2022/04/14 07:32:07;;;;;;;0.20;0.20;;;;;;;19.27;39.53;101740.84;5098769;28;20177;-27
2022/04/14 07:34:32;;;;;;;0.20;0.20;;;;;;;19.26;39.54;101745.53;5077014;28;20052;-30
2022/04/14 07:36:58;;;;;;;0.20;0.20;;;;;;;19.27;39.57;101740.84;5097978;28;20389;-30
2022/04/14 07:39:24;;;;;;;0.20;0.20;;;;;;;19.27;39.48;101743.63;5095874;28;20044;-30
2022/04/14 07:41:49;;;;;;;0.20;0.20;;;;;;;19.26;39.40;101741.97;5099150;28;20050;-30
2022/04/14 07:44:15;;;;;;;0.20;0.20;;;;;;;19.26;39.62;101742.78;5096209;28;20111;-30
2022/04/14 07:46:41;;;;;;;0.20;0.20;;;;;;;19.26;39.70;101742.78;5097283;28;20271;-30
2022/04/14 07:49:07;;;;;;;0.20;0.20;;;;;;;19.26;39.62;101745.53;5097669;28;20043;-29
2022/04/14 07:51:32;;;;;;;0.20;0.20;;;;;;;19.26;39.52;101747.47;5103350;28;20466;-29
2022/04/14 07:53:58;;;;;;;0.20;0.20;;;;;;;19.26;39.65;101742.78;5080127;28;20040;-29
2022/04/14 07:56:24;;;;;;;0.20;0.20;;;;;;;19.27;39.65;101740.84;5093787;28;20044;-30
2022/04/14 07:58:50;;;;;;;0.20;0.20;;;;;;;19.26;39.57;101745.53;5096108;28;20477;-29
2022/04/14 08:01:18;;;;;;;0.20;0.20;;;;;;;19.27;39.46;101743.63;5098291;28;20082;-30
2022/04/14 08:03:46;;;;;;;0.20;0.20;;;;;;;19.27;39.39;101741.69;5098705;28;20042;-30
2022/04/14 08:06:13;;;;;;;0.20;0.20;;;;;;;19.26;39.69;101737.25;5099344;28;20048;-31
2022/04/14 08:08:39;;;;;;;0.20;0.20;;;;;;;19.27;39.51;101740.84;5079516;28;20138;-29
2022/04/14 08:11:04;;;;;;;0.20;0.20;;;;;;;19.27;39.58;101747.22;5106964;28;20044;-29
2022/04/14 08:13:37;;;;;;;0.20;0.20;;;;;;;19.27;39.48;101749.13;5096450;28;20040;-29
2022/04/14 08:16:06;;;;;;;0.20;0.20;;;;;;;19.26;39.38;101742.78;5097178;28;20051;-31
2022/04/14 08:18:36;;;;;;;0.20;0.20;;;;;;;19.26;39.74;101739.19;5064710;28;20109;-30
2022/04/14 08:21:03;;;;;;;0.20;0.20;;;;;;;19.28;39.42;101750.78;5081059;28;20087;-29
2022/04/14 08:23:30;;;;;;;0.20;0.20;;;;;;;19.26;39.52;101748.31;5096378;28;20051;-29
2022/04/14 08:25:56;;;;;;;0.20;0.20;;;;;;;19.27;39.51;101751.91;5080786;28;20502;-29
2022/04/14 08:28:43;;;;;;;0.20;0.20;;;;;;;19.27;39.58;101755.50;5086895;28;20051;-29
2022/04/14 08:31:10;;;;;;;0.20;0.20;;;;;;;19.26;39.74;101751.06;5103933;28;20469;-30
2022/04/14 08:33:37;;;;;;;0.20;0.20;;;;;;;19.27;39.49;101749.13;5098273;28;20152;-30
2022/04/14 08:36:04;;;;;;;0.20;0.20;;;;;;;19.27;39.52;101752.72;5100222;28;20076;-30
2022/04/14 08:38:30;;;;;;;0.20;0.20;;;;;;;19.27;39.45;101743.63;5094769;28;20079;-32
2022/04/14 08:41:00;;;;;;;0.20;0.20;;;;;;;19.27;39.75;101749.13;5101906;28;20044;-30
2022/04/14 08:43:47;;;;;;;0.20;0.20;;;;;;;19.26;39.39;101739.19;5103273;28;20040;-30
2022/04/14 08:46:14;;;;;;;0.20;0.20;;;;;;;19.27;39.48;101751.91;5083742;28;20405;-30
2022/04/14 08:48:40;;;;;;;0.20;0.20;;;;;;;19.26;39.55;101753.84;5098298;28;20048;-29
2022/04/14 08:51:07;;;;;;;0.20;0.20;;;;;;;19.26;39.53;101747.47;5098788;28;20112;-30
2022/04/14 08:53:35;;;;;;;0.20;0.20;;;;;;;19.26;39.52;101756.59;5098305;28;20067;-30
2022/04/14 08:56:01;;;;;;;;;;;;;;;19.26;39.50;101753.84;5087518;28;20064;-30
2022/04/14 08:58:26;;;;;;;0.20;0.20;;;;;;;19.25;39.55;101751.31;5079634;28;19973;-32
2022/04/14 09:00:55;;;;;;;0.20;0.20;;;;;;;19.25;39.83;101752.13;5098995;28;20040;-30
2022/04/14 09:03:42;;;;;;;0.20;0.20;;;;;;;19.26;39.61;101753.84;5083045;28;20051;-29
2022/04/14 09:06:08;;;;;;;0.20;0.20;;;;;;;19.26;39.48;101742.78;5095301;28;20047;-29
2022/04/14 09:08:34;;;;;;;0.20;0.20;;;;;;;19.26;39.58;101737.25;5102813;28;20089;-29
2022/04/14 09:11:00;;;;;;;0.20;0.20;;;;;;;19.27;39.72;101749.97;5096860;28;20044;-29
2022/04/14 09:13:26;;;;;;;0.20;0.20;;;;;;;19.27;39.70;101741.69;5099535;28;20094;-30
2022/04/14 09:15:52;;;;;;;0.20;0.20;;;;;;;19.26;39.81;101737.25;5095396;28;20047;-30
2022/04/14 09:18:18;;;;;;;0.20;0.20;;;;;;;19.26;39.50;101737.25;5083384;28;20058;-31
2022/04/14 09:20:48;;;;;;;0.20;0.20;;;;;;;19.26;39.78;101739.19;5083233;28;20035;-28
2022/04/14 09:23:20;;;;;;;0.20;0.20;;;;;;;19.27;39.39;101736.16;5099593;28;20043;-29
2022/04/14 09:25:49;;;;;;;0.20;0.20;;;;;;;19.26;39.60;101734.50;5100863;28;20079;-30
2022/04/14 09:28:17;;;;;;;0.20;0.20;;;;;;;19.27;39.77;101740.84;5086940;28;20076;-29
2022/04/14 09:31:00;;;;;;;0.20;0.20;;;;;;;19.27;39.61;101738.09;5080857;28;20082;-30
2022/04/14 09:33:27;;;;;;;0.20;0.20;;;;;;;19.26;39.75;101731.75;5094478;28;20040;-29
2022/04/14 09:36:18;;;;;;;0.20;0.20;;;;;;;19.27;39.52;101733.41;5097152;28;21457;-30
2022/04/14 09:38:58;;;;;;;0.20;0.20;;;;;;;19.27;39.52;101732.56;5083017;28;20387;-30
2022/04/14 09:41:37;;;;;;;0.20;0.20;;;;;;;19.26;39.83;101728.97;5103272;28;20093;-31
2022/04/14 09:44:08;;;;;;;0.20;0.20;;;;;;;19.27;39.70;101725.13;5079933;28;20082;-27
2022/04/14 09:46:35;;;;;;;0.20;0.20;;;;;;;19.27;39.52;101727.88;5094803;28;20127;-27
2022/04/14 09:49:07;;;;;;;0.20;0.20;;;;;;;19.27;39.74;101724.28;5094110;28;20469;-27
2022/04/14 09:51:35;;;;;;;0.20;0.20;;;;;;;19.27;39.52;101711.31;5101070;28;20083;-28
2022/04/14 09:54:01;;;;;;;;;;;;;;;19.27;39.54;101713.25;5101267;28;20169;-28
2022/04/14 09:56:39;;;;;;;0.20;0.20;;;;;;;19.26;39.50;101711.56;5100787;28;19963;-30
2022/04/14 09:59:07;;;;;;;0.20;0.20;;;;;;;19.25;39.71;101716.25;5081870;28;20481;-30
2022/04/14 10:01:32;;;;;;;0.20;0.20;;;;;;;19.26;39.53;101712.41;5101509;28;20463;-30
2022/04/14 10:03:58;;;;;;;0.20;0.20;;;;;;;19.27;39.83;101710.47;5097001;28;20042;-30
2022/04/14 10:06:24;;;;;;;0.20;0.20;;;;;;;19.27;39.80;101714.06;5103927;28;20051;-29
2022/04/14 10:08:51;;;;;;;0.20;0.20;;;;;;;19.27;39.51;101703.03;5097076;28;20142;-32
2022/04/14 10:11:24;;;;;;;0.20;0.20;;;;;;;19.27;39.82;101705.78;5099831;28;20048;-30
2022/04/14 10:13:50;;;;;;;0.20;0.20;;;;;;;19.27;39.83;101705.78;5097244;28;20139;-30
2022/04/14 10:16:20;;;;;;;0.20;0.20;;;;;;;19.28;39.78;101698.31;5101920;28;20047;-29
2022/04/14 10:18:46;;;;;;;0.20;0.20;;;;;;;19.26;39.80;101692.25;5099711;28;20112;-32
2022/04/14 10:21:12;;;;;;;0.20;0.20;;;;;;;19.26;39.82;101690.31;5096825;28;20039;-30
2022/04/14 10:23:38;;;;;;;0.20;0.20;;;;;;;19.27;39.79;101688.38;5081704;28;20071;-29
2022/04/14 10:26:06;;;;;;;0.20;0.20;;;;;;;19.28;39.81;101687.28;5103348;28;20827;-31
2022/04/14 10:28:31;;;;;;;0.20;0.20;;;;;;;19.27;39.86;101689.22;5103509;28;20549;-29
2022/04/14 10:30:58;;;;;;;0.20;0.20;;;;;;;19.27;39.55;101693.91;5107204;28;20040;-30
2022/04/14 10:33:24;;;;;;;0.20;0.20;;;;;;;19.27;39.58;101691.16;5095174;28;20052;-30
2022/04/14 10:35:50;;;;;;;0.20;0.20;;;;;;;19.27;39.55;101700.25;5081406;28;20046;-30
2022/04/14 10:38:34;;;;;;;0.20;0.20;;;;;;;19.25;39.63;101694.16;5065339;28;20072;-29
2022/04/14 10:41:03;;;;;;;0.20;0.20;;;;;;;19.28;39.63;101695.56;5099458;28;20482;-30
2022/04/14 10:43:29;;;;;;;0.20;0.20;;;;;;;19.28;39.58;101690.03;5097737;28;20047;-29
2022/04/14 10:45:57;;;;;;;0.20;0.20;;;;;;;19.27;39.78;101689.22;5079217;28;20036;-31
2022/04/14 10:48:40;;;;;;;0.20;0.20;;;;;;;19.28;39.62;101681.75;5083233;28;20048;-29
2022/04/14 10:51:27;;;;;;;0.20;0.20;;;;;;;19.27;39.59;101675.41;5094750;28;20093;-29
2022/04/14 10:54:03;;;;;;;0.20;0.20;;;;;;;19.27;39.75;101671.81;5081756;28;20127;-28
2022/04/14 10:56:46;;;;;;;0.20;0.20;;;;;;;19.26;39.89;101676.50;5080919;28;20075;-27
2022/04/14 11:07:23;;;;;;;0.20;0.20;;;;;;;19.28;39.76;101673.47;5171416;27;20139;-24
2022/04/14 11:09:53;;;;;;;0.20;0.20;;;;;;;19.27;39.66;101671.81;5155271;27;20392;-23
2022/04/14 11:12:28;;;;;;;0.20;0.20;;;;;;;19.27;39.60;101675.41;5136947;27;20507;-23
2022/04/14 11:14:57;;;;;;;0.20;0.20;;;;;;;19.27;39.92;101671.81;5150131;27;20058;-24
2022/04/14 11:18:00;;;;;;;0.20;0.20;;;;;;;19.29;39.68;101683.41;5136681;27;20074;-24
2022/04/14 11:20:36;;;;;;;0.20;0.20;;;;;;;19.27;39.86;101688.38;5135805;27;20038;-25
2022/04/14 11:23:06;;;;;;;0.20;0.20;;;;;;;19.27;39.73;101683.69;5153696;27;20039;-24
2022/04/14 11:28:31;;;;;;;0.20;0.20;;;;;;;19.28;39.88;101684.50;5168403;27;20136;-23
2022/04/14 11:30:59;;;;;;;0.20;0.20;;;;;;;19.27;39.70;101688.38;5148456;27;20461;-24
2022/04/14 11:36:14;;;;;;;0.20;0.20;;;;;;;19.28;39.69;101688.09;5160094;27;20624;-28
2022/04/14 11:41:50;;;;;;;0.20;0.20;;;;;;;19.28;39.70;101690.03;5178065;27;20125;-28
2022/04/14 11:44:20;;;;;;;0.20;0.20;;;;;;;19.28;39.67;101693.63;5135821;27;20081;-29